This is the latest recevied weather packets stored in our database for station/object AD0YN. If no packets are shown the sender has not sent any weather packets the latest 10 day(s).
| Time | Temp. | Humidity | Pressure | Rain* | Wind** | Luminosity | Snow |
|---|---|---|---|---|---|---|---|
| 1777890264 | 17.78° C | 56% | 1003.9 hPa | 0 mm | - | 0 W/m² | - |
| 1777889960 | 17.78° C | 56% | 1004.1 hPa | 0 mm | - | 0 W/m² | - |
| 1777889658 | 17.22° C | 58% | 1004.1 hPa | 0 mm | - | 0 W/m² | - |
| 1777889355 | 16.67° C | 59% | 1004.1 hPa | 0 mm | - | 0 W/m² | - |
| 1777889052 | 15.56° C | 64% | 1004.4 hPa | 0 mm | - | 0 W/m² | - |
| 1777888750 | 15.56° C | 67% | 1004.2 hPa | 0 mm | - | 0 W/m² | - |
| 1777888446 | 15.56° C | 69% | 1004.3 hPa | 0 mm | - | 0 W/m² | - |
| 1777888142 | 15.56° C | 68% | 1004.4 hPa | 0 mm | - | 0 W/m² | - |
| 1777887840 | 16.11° C | 67% | 1004.7 hPa | 0 mm | - | 0 W/m² | - |
| 1777887536 | 16.11° C | 66% | 1004.9 hPa | 0 mm | - | 0 W/m² | - |
| 1777887232 | 16.11° C | 68% | 1005 hPa | 0 mm | - | 0 W/m² | - |
| 1777886928 | 16.11° C | 66% | 1005.4 hPa | 0 mm | - | 0 W/m² | - |
| 1777886624 | 15.56° C | 67% | 1005.4 hPa | 0 mm | - | 0 W/m² | - |
| 1777886321 | 15° C | 72% | 1005.6 hPa | 0 mm | - | 0 W/m² | - |
| 1777886019 | 15° C | 75% | 1006.1 hPa | 0 mm | - | 0 W/m² | - |
| 1777885718 | 16.11° C | 70% | 1005.7 hPa | 0 mm | - | 0 W/m² | - |
| 1777885415 | 16.67° C | 66% | 1005.3 hPa | 0 mm | - | 0 W/m² | - |
| 1777885114 | 16.67° C | 63% | 1005.2 hPa | 0 mm | - | 0 W/m² | - |
| 1777884810 | 16.67° C | 61% | 1005.2 hPa | 0 mm | - | 0 W/m² | - |
| 1777884506 | 16.67° C | 59% | 1004.9 hPa | 0 mm | - | 0 W/m² | - |
| 1777884204 | 16.67° C | 61% | 1005.2 hPa | 0 mm | - | 0 W/m² | - |
| 1777883900 | 16.11° C | 62% | 1005.4 hPa | 0 mm | - | 0 W/m² | - |
| 1777883597 | 15.56° C | 64% | 1005.2 hPa | 0 mm | - | 0 W/m² | - |
| 1777883293 | 15.56° C | 68% | 1005.1 hPa | 0 mm | - | 0 W/m² | - |
| 1777882989 | 15° C | 69% | 1005.4 hPa | 0 mm | - | 0 W/m² | - |
* Rain latest hour (hover to see other rain measurements)
** Current wind speed in m/s (hover to see current wind gust speed)